createdAt,value
2022-12-09T00:00:57.315Z,2.70
2022-12-09T00:03:47.897Z,2.60
2022-12-09T00:06:36.429Z,2.60
2022-12-09T00:09:24.752Z,2.60
2022-12-09T00:12:13.175Z,2.60
2022-12-09T00:15:01.545Z,2.60
2022-12-09T00:17:49.966Z,2.60
2022-12-09T00:20:39.672Z,2.50
2022-12-09T00:23:28.411Z,2.50
2022-12-09T00:26:17.269Z,2.40
2022-12-09T00:29:06.244Z,2.40
2022-12-09T00:31:54.803Z,2.40
2022-12-09T00:34:43.488Z,2.40
2022-12-09T00:37:34.990Z,2.40
2022-12-09T00:40:23.467Z,2.30
2022-12-09T00:43:12.305Z,2.40
2022-12-09T00:46:01.034Z,2.40
2022-12-09T00:48:49.613Z,2.40
2022-12-09T00:51:38.150Z,2.40
2022-12-09T00:54:27.955Z,2.40
2022-12-09T00:57:16.576Z,2.40
2022-12-09T01:00:06.970Z,2.40
2022-12-09T01:02:55.630Z,2.50
2022-12-09T01:05:44.947Z,2.40
2022-12-09T01:08:35.135Z,2.50
2022-12-09T01:11:29.563Z,2.50
2022-12-09T01:14:18.015Z,2.40
2022-12-09T01:17:06.385Z,2.40
2022-12-09T01:19:55.127Z,2.40
2022-12-09T01:22:43.543Z,2.50
2022-12-09T01:25:32.300Z,2.50
2022-12-09T01:28:22.450Z,2.50
2022-12-09T01:31:13.206Z,2.50
2022-12-09T01:34:02.154Z,2.50
2022-12-09T01:36:50.607Z,2.50
2022-12-09T01:39:39.439Z,2.50
2022-12-09T01:42:28.984Z,2.50
2022-12-09T01:45:41.852Z,2.40
2022-12-09T01:48:36.281Z,2.40
2022-12-09T01:51:25.170Z,2.40
2022-12-09T01:54:13.579Z,2.30
2022-12-09T01:57:03.054Z,2.20
2022-12-09T01:59:52.844Z,2.10
2022-12-09T02:02:46.820Z,2.10
2022-12-09T02:05:36.440Z,2.10
2022-12-09T02:08:24.942Z,2.10
2022-12-09T02:11:19.750Z,2.10
2022-12-09T02:14:16.628Z,2.10
2022-12-09T02:17:19.082Z,2.10
2022-12-09T02:20:16.833Z,2.10
2022-12-09T02:23:09.873Z,2.10
2022-12-09T02:26:04.072Z,2.20
2022-12-09T02:29:26.248Z,2.20
2022-12-09T02:32:39.533Z,2.20
2022-12-09T02:35:34.788Z,2.20
2022-12-09T02:38:27.139Z,2.20
2022-12-09T02:41:19.557Z,2.20
2022-12-09T02:44:13.554Z,2.20
2022-12-09T02:47:03.930Z,2.30
2022-12-09T02:49:57.364Z,2.30
2022-12-09T02:52:49.031Z,2.30
2022-12-09T02:55:39.147Z,2.30
2022-12-09T02:58:27.826Z,2.30
2022-12-09T03:01:24.845Z,2.30
2022-12-09T03:04:19.819Z,2.20
2022-12-09T03:07:14.815Z,2.10
2022-12-09T03:10:12.071Z,2.10
2022-12-09T03:13:06.366Z,2.20
2022-12-09T03:16:01.163Z,2.20
2022-12-09T03:18:54.906Z,2.10
2022-12-09T03:21:47.269Z,2.00
2022-12-09T03:24:39.570Z,2.10
2022-12-09T03:27:34.630Z,2.00
2022-12-09T03:30:23.043Z,2.00
2022-12-09T03:33:12.874Z,2.00
2022-12-09T03:36:05.814Z,2.00
2022-12-09T03:38:56.200Z,2.00
2022-12-09T03:41:49.087Z,2.00
2022-12-09T03:44:42.714Z,2.00
2022-12-09T03:47:31.252Z,2.00
2022-12-09T03:50:22.601Z,2.00
2022-12-09T03:53:14.215Z,1.90
2022-12-09T03:56:07.794Z,1.90
2022-12-09T03:58:58.562Z,1.80
2022-12-09T04:01:50.160Z,1.70
2022-12-09T04:04:41.514Z,1.70
2022-12-09T04:07:30.229Z,1.50
2022-12-09T04:10:18.728Z,1.50
2022-12-09T04:13:07.392Z,1.50
2022-12-09T04:15:55.945Z,1.50
2022-12-09T04:18:45.838Z,1.50
2022-12-09T04:21:34.230Z,1.50
2022-12-09T04:24:23.061Z,1.40
2022-12-09T04:27:12.558Z,1.40
2022-12-09T04:30:01.601Z,1.30
2022-12-09T04:32:50.204Z,1.40
2022-12-09T04:35:40.083Z,1.40
2022-12-09T04:38:28.394Z,1.40
2022-12-09T04:41:17.523Z,1.40
2022-12-09T04:44:06.441Z,1.40
2022-12-09T04:46:55.070Z,1.50
2022-12-09T04:49:43.449Z,1.50
2022-12-09T04:52:33.189Z,1.50
2022-12-09T04:55:21.487Z,1.50
2022-12-09T04:58:10.206Z,1.50
2022-12-09T05:00:59.120Z,1.60
2022-12-09T05:03:50.218Z,1.60
2022-12-09T05:06:38.876Z,1.60
2022-12-09T05:09:28.894Z,1.60
2022-12-09T05:12:17.425Z,1.60
2022-12-09T05:15:06.555Z,1.60
2022-12-09T05:17:54.920Z,1.80
2022-12-09T05:20:43.938Z,1.70
2022-12-09T05:23:32.423Z,1.60
2022-12-09T05:26:23.877Z,1.60
2022-12-09T05:29:16.614Z,1.70
2022-12-09T05:32:08.604Z,1.70
2022-12-09T05:34:57.418Z,1.70
2022-12-09T05:37:45.890Z,1.70
2022-12-09T05:40:34.264Z,1.50
2022-12-09T05:43:23.973Z,1.50
2022-12-09T05:46:13.810Z,1.50
2022-12-09T05:49:02.965Z,1.40
2022-12-09T05:51:51.414Z,1.40
2022-12-09T05:54:40.026Z,1.50
2022-12-09T05:57:31.066Z,1.50
2022-12-09T06:00:22.579Z,1.40
2022-12-09T06:03:11.305Z,1.50
2022-12-09T06:06:00.040Z,1.50
2022-12-09T06:08:49.346Z,1.50
2022-12-09T06:11:38.240Z,1.50
2022-12-09T06:14:26.900Z,1.50
2022-12-09T06:17:17.205Z,1.50
2022-12-09T06:20:07.090Z,1.50
2022-12-09T06:22:55.906Z,1.50
2022-12-09T06:25:45.990Z,1.60
2022-12-09T06:28:35.495Z,1.60
2022-12-09T06:31:24.873Z,1.60
2022-12-09T06:34:15.218Z,1.50
2022-12-09T06:37:04.005Z,1.40
2022-12-09T06:39:52.738Z,1.40
2022-12-09T06:42:41.330Z,1.40
2022-12-09T06:45:30.422Z,1.40
2022-12-09T06:48:18.867Z,1.40
2022-12-09T06:51:09.591Z,1.40
2022-12-09T06:53:58.660Z,1.40
2022-12-09T06:56:47.226Z,1.40
2022-12-09T06:59:35.846Z,1.40
2022-12-09T07:02:24.779Z,1.40
2022-12-09T07:05:14.110Z,1.50
2022-12-09T07:08:04.545Z,1.50
2022-12-09T07:10:56.594Z,1.50
2022-12-09T07:13:46.033Z,1.60
2022-12-09T07:16:35.183Z,1.60
2022-12-09T07:19:24.871Z,1.70
2022-12-09T07:22:13.969Z,1.70
2022-12-09T07:25:03.932Z,1.60
2022-12-09T07:27:52.858Z,1.70
2022-12-09T07:30:41.482Z,1.80
2022-12-09T07:33:31.137Z,1.80
2022-12-09T07:36:21.778Z,1.80
2022-12-09T07:39:14.194Z,1.80
2022-12-09T07:42:04.495Z,1.80
2022-12-09T07:44:53.448Z,1.80
2022-12-09T07:47:42.314Z,1.80
2022-12-09T07:50:30.937Z,1.80
2022-12-09T07:53:19.915Z,1.90
2022-12-09T07:56:11.774Z,2.00
2022-12-09T07:59:01.658Z,2.00
2022-12-09T08:01:50.556Z,2.00
2022-12-09T08:04:39.403Z,2.00
2022-12-09T08:07:28.381Z,2.00
2022-12-09T08:10:17.265Z,2.00
2022-12-09T08:13:06.107Z,1.90
2022-12-09T08:15:55.852Z,1.90
2022-12-09T08:18:45.517Z,1.90
2022-12-09T08:21:34.523Z,1.90
2022-12-09T08:24:23.498Z,2.00
2022-12-09T08:27:12.094Z,1.90
2022-12-09T08:30:01.707Z,1.90
2022-12-09T08:32:51.963Z,2.00
2022-12-09T08:35:41.113Z,1.90
2022-12-09T08:38:32.046Z,1.90
2022-12-09T08:41:35.350Z,1.90
2022-12-09T08:44:24.710Z,1.90
2022-12-09T08:47:13.203Z,2.00
2022-12-09T08:50:03.119Z,2.00
2022-12-09T08:52:51.964Z,2.10
2022-12-09T08:55:42.345Z,2.10
2022-12-09T08:58:32.816Z,2.10
2022-12-09T09:01:23.440Z,2.20
2022-12-09T09:04:14.321Z,2.20
2022-12-09T09:07:04.209Z,2.20
2022-12-09T09:09:53.857Z,2.20
2022-12-09T09:12:43.815Z,2.30
2022-12-09T09:15:32.823Z,2.30
2022-12-09T09:18:21.371Z,2.30
2022-12-09T09:21:12.594Z,2.30
2022-12-09T09:24:02.490Z,2.40
2022-12-09T09:26:52.461Z,2.50
2022-12-09T09:29:41.063Z,2.50
2022-12-09T09:32:29.619Z,2.60
2022-12-09T09:35:18.283Z,2.60
2022-12-09T09:38:07.521Z,2.60
2022-12-09T09:40:58.224Z,2.70
2022-12-09T09:43:47.151Z,2.60
2022-12-09T09:46:40.042Z,2.60
2022-12-09T09:49:35.527Z,2.70
2022-12-09T09:52:27.641Z,2.70
2022-12-09T09:55:25.256Z,2.70
2022-12-09T09:58:22.986Z,2.70
2022-12-09T10:01:14.632Z,2.80
2022-12-09T10:04:09.920Z,2.90
2022-12-09T10:07:07.394Z,2.90
2022-12-09T10:10:07.018Z,2.90
2022-12-09T10:13:09.440Z,2.90
2022-12-09T10:16:13.416Z,3.00
2022-12-09T10:19:09.397Z,3.00
2022-12-09T10:22:00.834Z,3.10
2022-12-09T10:24:51.768Z,3.00
2022-12-09T10:27:44.684Z,3.10
2022-12-09T10:30:39.797Z,3.20
2022-12-09T10:33:37.262Z,3.20
2022-12-09T10:36:32.345Z,3.20
2022-12-09T10:39:24.148Z,3.30
2022-12-09T10:42:34.829Z,3.30
2022-12-09T10:45:23.908Z,3.30
2022-12-09T10:48:22.565Z,3.30
2022-12-09T10:51:16.545Z,3.40
2022-12-09T10:54:21.691Z,3.40
2022-12-09T10:57:25.908Z,3.50
2022-12-09T11:00:24.675Z,3.70
2022-12-09T11:03:30.857Z,3.80
2022-12-09T11:06:28.452Z,3.90
2022-12-09T11:09:24.257Z,3.90
2022-12-09T11:12:20.134Z,4.00
2022-12-09T11:15:26.402Z,4.00
2022-12-09T11:18:20.602Z,4.00
2022-12-09T11:21:31.743Z,4.00
2022-12-09T11:24:23.104Z,3.90
2022-12-09T11:27:30.291Z,3.80
2022-12-09T11:30:23.446Z,3.80
2022-12-09T11:33:25.664Z,3.80
2022-12-09T11:36:22.360Z,3.80
2022-12-09T11:39:22.822Z,3.80
2022-12-09T11:42:19.484Z,3.90
2022-12-09T11:45:19.708Z,3.90
2022-12-09T11:48:31.942Z,4.10
2022-12-09T11:51:28.678Z,4.10
2022-12-09T11:54:24.702Z,4.20
2022-12-09T11:57:23.671Z,4.20
2022-12-09T12:00:19.287Z,4.30
2022-12-09T12:03:17.058Z,4.30
2022-12-09T12:06:12.771Z,4.30
2022-12-09T12:09:06.206Z,4.30
2022-12-09T12:12:04.114Z,4.30
2022-12-09T12:14:52.552Z,4.20
2022-12-09T12:17:50.460Z,4.10
2022-12-09T12:20:58.234Z,4.10
2022-12-09T12:24:13.187Z,4.10
2022-12-09T12:27:17.022Z,4.10
2022-12-09T12:30:10.024Z,4.00
2022-12-09T12:33:59.655Z,3.90
2022-12-09T12:36:33.108Z,3.90
2022-12-09T12:39:34.831Z,3.90
2022-12-09T12:42:35.513Z,3.80
2022-12-09T12:45:48.033Z,3.80
2022-12-09T12:48:53.127Z,3.90
2022-12-09T12:51:54.248Z,3.90
2022-12-09T12:54:56.270Z,3.90
2022-12-09T12:57:53.439Z,3.90
2022-12-09T13:00:51.856Z,3.90
2022-12-09T13:03:48.555Z,3.80
2022-12-09T13:06:42.388Z,3.80
2022-12-09T13:09:39.521Z,3.80
2022-12-09T13:12:48.790Z,3.70
2022-12-09T13:15:43.311Z,3.70
2022-12-09T13:18:35.982Z,3.70
2022-12-09T13:21:25.127Z,3.60
2022-12-09T13:24:21.618Z,3.60
2022-12-09T13:27:15.422Z,3.60
2022-12-09T13:30:07.621Z,3.70
2022-12-09T13:33:26.080Z,3.60
2022-12-09T13:36:20.446Z,3.60
2022-12-09T13:39:12.580Z,3.50
2022-12-09T13:42:18.356Z,3.50
2022-12-09T13:45:14.590Z,3.50
2022-12-09T13:48:13.298Z,3.50
2022-12-09T13:51:06.689Z,3.50
2022-12-09T13:54:03.419Z,3.50
2022-12-09T13:57:11.671Z,3.50
2022-12-09T14:00:04.903Z,3.50
2022-12-09T14:02:59.272Z,3.50
2022-12-09T14:05:48.816Z,3.40
2022-12-09T14:08:48.211Z,3.40
2022-12-09T14:11:47.154Z,3.30
2022-12-09T14:14:57.001Z,3.30
2022-12-09T14:18:02.258Z,3.30
2022-12-09T14:21:25.765Z,3.20
2022-12-09T14:24:38.025Z,3.20
2022-12-09T14:27:27.659Z,3.20
2022-12-09T14:30:50.475Z,3.20
2022-12-09T14:33:42.178Z,3.10
2022-12-09T14:36:34.842Z,3.10
2022-12-09T14:39:28.284Z,3.00
2022-12-09T14:42:28.743Z,3.00
2022-12-09T14:45:29.270Z,3.00
2022-12-09T14:48:21.763Z,3.00
2022-12-09T14:51:18.410Z,3.00
2022-12-09T14:54:09.189Z,2.90
2022-12-09T14:57:00.245Z,2.90
2022-12-09T14:59:52.227Z,2.80
2022-12-09T15:02:40.578Z,2.80
2022-12-09T15:05:30.167Z,2.70
2022-12-09T15:08:31.806Z,2.70
2022-12-09T15:11:24.265Z,2.60
2022-12-09T15:14:32.016Z,2.60
2022-12-09T15:17:26.146Z,2.50
2022-12-09T15:20:27.411Z,2.50
2022-12-09T15:23:20.197Z,2.50
2022-12-09T15:26:10.631Z,2.50
2022-12-09T15:29:01.203Z,2.50
2022-12-09T15:31:53.345Z,2.40
2022-12-09T15:34:44.055Z,2.40
2022-12-09T15:37:33.478Z,2.40
2022-12-09T15:40:23.051Z,2.40
2022-12-09T15:43:12.832Z,2.40
2022-12-09T15:46:02.047Z,2.40
2022-12-09T15:48:54.713Z,2.30
2022-12-09T15:51:46.651Z,2.30
2022-12-09T15:54:40.823Z,2.40
2022-12-09T15:57:29.732Z,2.40
2022-12-09T16:00:18.695Z,2.30
2022-12-09T16:03:08.702Z,2.30
2022-12-09T16:05:59.655Z,2.30
2022-12-09T16:08:49.438Z,2.30
2022-12-09T16:11:39.805Z,2.30
2022-12-09T16:14:42.781Z,2.30
2022-12-09T16:17:34.226Z,2.20
2022-12-09T16:20:31.636Z,2.30
2022-12-09T16:23:24.805Z,2.30
2022-12-09T16:26:21.680Z,2.20
2022-12-09T16:29:20.846Z,2.20
2022-12-09T16:32:28.259Z,2.20
2022-12-09T16:35:22.763Z,2.10
2022-12-09T16:38:19.143Z,2.20
2022-12-09T16:41:12.541Z,2.20
2022-12-09T16:44:02.226Z,2.20
2022-12-09T16:46:50.575Z,2.20
2022-12-09T16:49:39.869Z,2.20
2022-12-09T16:52:28.881Z,2.10
2022-12-09T16:55:20.989Z,2.10
2022-12-09T16:58:12.056Z,2.00
2022-12-09T17:01:04.024Z,2.00
2022-12-09T17:03:55.281Z,2.10
2022-12-09T17:06:43.760Z,2.10
2022-12-09T17:09:32.121Z,2.00
2022-12-09T17:12:20.559Z,2.00
2022-12-09T17:15:10.849Z,2.00
2022-12-09T17:18:00.514Z,2.00
2022-12-09T17:20:48.900Z,2.00
2022-12-09T17:23:39.899Z,2.00
2022-12-09T17:26:33.602Z,2.00
2022-12-09T17:29:21.953Z,2.00
2022-12-09T17:32:10.348Z,2.00
2022-12-09T17:35:00.141Z,1.90
2022-12-09T17:37:48.583Z,1.90
2022-12-09T17:40:37.121Z,1.90
2022-12-09T17:43:25.540Z,2.00
2022-12-09T17:46:14.972Z,2.00
2022-12-09T17:49:04.066Z,1.90
2022-12-09T17:51:53.798Z,1.90
2022-12-09T17:54:42.183Z,1.90
2022-12-09T17:57:30.497Z,1.90
2022-12-09T18:00:19.900Z,1.90
2022-12-09T18:03:13.981Z,1.90
2022-12-09T18:06:06.569Z,1.90
2022-12-09T18:08:56.309Z,1.90
2022-12-09T18:11:45.449Z,1.80
2022-12-09T18:14:33.821Z,1.80
2022-12-09T18:17:22.228Z,1.80
2022-12-09T18:20:12.925Z,1.70
2022-12-09T18:23:01.251Z,1.70
2022-12-09T18:25:50.899Z,1.80
2022-12-09T18:28:39.569Z,1.70
2022-12-09T18:31:27.940Z,1.80
2022-12-09T18:34:16.966Z,1.70
2022-12-09T18:37:05.382Z,1.70
2022-12-09T18:39:53.818Z,1.70
2022-12-09T18:42:43.546Z,1.70
2022-12-09T18:45:31.886Z,1.60
2022-12-09T18:48:20.288Z,1.60
2022-12-09T18:51:15.655Z,1.60
2022-12-09T18:54:05.408Z,1.60
2022-12-09T18:56:54.203Z,1.60
2022-12-09T18:59:43.865Z,1.60
2022-12-09T19:02:32.295Z,1.60
2022-12-09T19:05:20.726Z,1.60
2022-12-09T19:08:09.459Z,1.50
2022-12-09T19:10:57.846Z,1.50
2022-12-09T19:13:46.168Z,1.50
2022-12-09T19:16:36.947Z,1.50
2022-12-09T19:19:27.465Z,1.50
2022-12-09T19:22:16.025Z,1.40
2022-12-09T19:25:04.729Z,1.40
2022-12-09T19:27:53.523Z,1.40
2022-12-09T19:30:45.389Z,1.50
2022-12-09T19:33:39.238Z,1.50
2022-12-09T19:36:30.108Z,1.50
2022-12-09T19:39:20.621Z,1.50
2022-12-09T19:42:09.373Z,1.50
2022-12-09T19:45:02.431Z,1.50
2022-12-09T19:47:52.093Z,1.50
2022-12-09T19:50:41.795Z,1.50
2022-12-09T19:53:30.153Z,1.50
2022-12-09T19:56:20.502Z,1.50
2022-12-09T19:59:09.142Z,1.50
2022-12-09T20:01:57.550Z,1.40
2022-12-09T20:04:48.686Z,1.30
2022-12-09T20:07:39.059Z,1.30
2022-12-09T20:10:27.298Z,1.30
2022-12-09T20:13:16.483Z,1.30
2022-12-09T20:16:06.076Z,1.30
2022-12-09T20:18:56.425Z,1.30
2022-12-09T20:21:44.671Z,1.30
2022-12-09T20:24:34.194Z,1.30
2022-12-09T20:27:23.074Z,1.30
2022-12-09T20:30:12.411Z,1.30
2022-12-09T20:33:01.784Z,1.30
2022-12-09T20:35:50.117Z,1.30
2022-12-09T20:38:39.459Z,1.30
2022-12-09T20:41:30.057Z,1.30
2022-12-09T20:44:20.051Z,1.30
2022-12-09T20:47:08.418Z,1.20
2022-12-09T20:49:56.730Z,1.20
2022-12-09T20:52:45.081Z,1.20
2022-12-09T20:55:33.536Z,1.20
2022-12-09T20:58:23.343Z,1.20
2022-12-09T21:01:15.487Z,1.20
2022-12-09T21:04:05.863Z,1.20
2022-12-09T21:06:54.364Z,1.20
2022-12-09T21:09:42.660Z,1.20
2022-12-09T21:12:30.997Z,1.20
2022-12-09T21:15:20.625Z,1.20
2022-12-09T21:18:08.916Z,1.20
2022-12-09T21:20:57.320Z,1.20
2022-12-09T21:23:45.701Z,1.20
2022-12-09T21:26:34.095Z,1.10
2022-12-09T21:29:26.921Z,1.10
2022-12-09T21:32:19.789Z,1.10
2022-12-09T21:35:08.926Z,1.00
2022-12-09T21:37:57.255Z,1.00
2022-12-09T21:40:45.604Z,1.00
2022-12-09T21:43:35.273Z,1.00
2022-12-09T21:46:26.870Z,1.00
2022-12-09T21:49:16.544Z,1.00
2022-12-09T21:52:06.624Z,1.00
2022-12-09T21:54:55.587Z,0.90
2022-12-09T21:57:44.062Z,0.90
2022-12-09T22:00:32.400Z,1.00
2022-12-09T22:03:20.756Z,1.00
2022-12-09T22:06:11.711Z,1.00
2022-12-09T22:09:01.297Z,1.00
2022-12-09T22:11:49.897Z,1.00
2022-12-09T22:14:38.301Z,1.00
2022-12-09T22:17:26.866Z,1.00
2022-12-09T22:20:54.157Z,1.10
2022-12-09T22:23:25.259Z,1.10
2022-12-09T22:26:15.683Z,1.10
2022-12-09T22:29:06.154Z,1.10
2022-12-09T22:31:54.497Z,1.10
2022-12-09T22:34:44.133Z,1.10
2022-12-09T22:37:43.454Z,1.10
2022-12-09T22:40:34.032Z,1.00
2022-12-09T22:43:22.381Z,1.00
2022-12-09T22:46:13.384Z,1.00
2022-12-09T22:49:04.767Z,1.00
2022-12-09T22:51:57.668Z,1.00
2022-12-09T22:54:48.831Z,1.00
2022-12-09T22:57:39.321Z,1.00
2022-12-09T23:00:27.701Z,1.00
2022-12-09T23:03:16.097Z,1.00
2022-12-09T23:06:04.797Z,0.90
2022-12-09T23:08:53.257Z,0.90
2022-12-09T23:11:41.616Z,0.90
2022-12-09T23:14:31.296Z,1.00
2022-12-09T23:17:19.600Z,1.00
2022-12-09T23:20:08.782Z,1.00
2022-12-09T23:22:57.484Z,1.10
2022-12-09T23:25:45.826Z,1.10
2022-12-09T23:28:37.308Z,1.10
2022-12-09T23:31:28.684Z,1.10
2022-12-09T23:34:17.394Z,1.10
2022-12-09T23:37:05.752Z,1.10
2022-12-09T23:39:55.414Z,1.10
2022-12-09T23:42:43.709Z,1.20
2022-12-09T23:45:32.012Z,1.20
2022-12-09T23:48:21.679Z,1.20
2022-12-09T23:51:11.542Z,1.10
2022-12-09T23:54:02.544Z,1.20
2022-12-09T23:56:50.917Z,1.10
2022-12-09T23:59:39.224Z,1.00
